Union, WV

8:48 AM EST on March 01, 2015 (GMT -0500)
Greenbrier Valley | Change Station
CLOSE
Current Station
Airport
Location: Lewisburg,
Elevation: 2303 ft
Nearby Weather Stations

Elev 2303 ft 37.86 °N, 80.40 °W | Updated 13 minutes ago

Overcast
Overcast
28 °F
Feels Like 22 °F
N
6
Wind Variable Wind from NNE

Today
High -- | Low -- °F
--% Chance of Precip.
Yesterday
High -- | Low -- °F
Precip. -- in
6:53 AM 6:15 PM
Waxing Gibbous, 85% visible
Pressure 30.45 in
Visibility 5.0 miles
Clouds Overcast 3300 ft
Windchill 22 °F
Dew Point 26 °F
Humidity 92%
Rainfall 0.00 in
Snow Depth Not available.
UV 0 out of 12
Pollen 1.60 out of 12
Air Quality Not available.
Flu Activity Not available.
METAR KLWB 011335Z AUTO 03005KT 5SM UP OVC033 M02/M03 A3045 RMK AO2 T10211033

More Conditions Fewer Conditions

Pressure 30.45 in
Visibility 5.0 miles
Clouds Overcast 3300 ft
Windchill 22 °F
Dew Point 26 °F
Humidity 92%
Rainfall 0.00 in
Snow Depth Not available.
UV 0 out of 12
Pollen 1.60 out of 12
Air Quality Not available.
Flu Activity Not available.
METAR KLWB 011335Z AUTO 03005KT 5SM UP OVC033 M02/M03 A3045 RMK AO2 T10211033

More Conditions Fewer Conditions

10-Day Weather Forecast

Almanac

Astronomy

Mar. 01, 2015 Rise Set
Actual Time
Civil Twilight
Nautical Twilight
Astronomical Twilight
Moon
Length of Visible Light
Length of Day
Tomorrow will be .
, % of the Moon is Illuminated

Today's Extremes

State Highs State Lows

Community

WunderPhotos

Upload Photos

1,801,382 photos uploaded!

WunderBlogs® & News

Nearby

Air Quality

  Air Quality AQ Index Pollutant
Not available.

Snow Depth

Station Depth Elevation

Earthquake Activity

City Distance Mag. Time & Date
Minimum magnitude displayed is 2.5.

Coastal Water Temperatures

Place Temperature

Nearby Weather Stations

Winter Weather Advisory
Statement as of 3:54 AM EST on March 01, 2015

... Winter Weather Advisory remains in effect until 7 PM EST this
evening...

* locations... Greenbrier valley... Alleghany Highlands and New
River valley.

* Hazard types... a wintry mix of snow... sleet... and freezing
rain.

* Accumulations... snow and sleet accumulation less than one inch
except 1 to 2 inches across the Greenbrier valley and Virginia
Highlands. A trace to one tenth of an inch of ice accretion.

* Timing... early this morning through 7 PM this evening.

* Impacts... hazardous travel conditions. A light glaze of ice
will also coat elevated objects such as trees... powerlines...
and vehicles.

* Winds... southeast 5 to 10 mph. Gusts up to 20 mph in the higher
elevations.

* Temperatures... in the mid 20s... then climbing into the 30s this afternoon.

Precautionary/preparedness actions...

This Winter Weather Advisory means that periods of snow... sleet...
or freezing rain will cause travel difficulties. Be prepared for
slippery roads and limited visibilities... and use caution while
driving.